sensor_id;sensor_type;location;lat;lon;timestamp;temperature;humidity
72338;DHT22;60294;64.134;-21.862;2022-12-31T00:01:01;-3266.30;63.90
72338;DHT22;60294;64.134;-21.862;2022-12-31T00:03:27;-3266.30;63.90
72338;DHT22;60294;64.134;-21.862;2022-12-31T00:05:53;-3266.40;64.00
72338;DHT22;60294;64.134;-21.862;2022-12-31T00:08:19;-3266.50;63.70
72338;DHT22;60294;64.134;-21.862;2022-12-31T00:10:45;-3266.60;64.00
72338;DHT22;60294;64.134;-21.862;2022-12-31T00:13:11;-3266.60;64.20
72338;DHT22;60294;64.134;-21.862;2022-12-31T00:15:38;-3266.70;64.20
72338;DHT22;60294;64.134;-21.862;2022-12-31T00:18:05;-3266.70;64.00
72338;DHT22;60294;64.134;-21.862;2022-12-31T00:20:31;-3266.80;63.90
72338;DHT22;60294;64.134;-21.862;2022-12-31T00:22:58;-3266.80;63.10
72338;DHT22;60294;64.134;-21.862;2022-12-31T00:25:24;-3266.90;63.00
72338;DHT22;60294;64.134;-21.862;2022-12-31T00:27:50;-3266.90;62.80
72338;DHT22;60294;64.134;-21.862;2022-12-31T00:30:16;-3267.00;63.10
72338;DHT22;60294;64.134;-21.862;2022-12-31T00:32:41;-3267.00;63.60
72338;DHT22;60294;64.134;-21.862;2022-12-31T00:35:07;-3267.00;64.00
72338;DHT22;60294;64.134;-21.862;2022-12-31T00:37:33;-3267.00;64.10
72338;DHT22;60294;64.134;-21.862;2022-12-31T00:39:59;-3267.10;64.40
72338;DHT22;60294;64.134;-21.862;2022-12-31T00:42:25;-3267.10;64.30
72338;DHT22;60294;64.134;-21.862;2022-12-31T00:44:51;-3267.10;64.30
72338;DHT22;60294;64.134;-21.862;2022-12-31T00:47:17;-3267.10;64.40
72338;DHT22;60294;64.134;-21.862;2022-12-31T00:49:42;-3267.10;64.40
72338;DHT22;60294;64.134;-21.862;2022-12-31T00:52:08;-3267.20;64.80
72338;DHT22;60294;64.134;-21.862;2022-12-31T00:54:34;-3267.20;64.60
72338;DHT22;60294;64.134;-21.862;2022-12-31T00:57:00;-3267.20;64.50
72338;DHT22;60294;64.134;-21.862;2022-12-31T00:59:26;-3267.20;64.70
72338;DHT22;60294;64.134;-21.862;2022-12-31T01:01:52;-3267.30;65.00
72338;DHT22;60294;64.134;-21.862;2022-12-31T01:04:19;-3267.20;65.40
72338;DHT22;60294;64.134;-21.862;2022-12-31T01:06:46;-3267.30;65.30
72338;DHT22;60294;64.134;-21.862;2022-12-31T01:09:14;-3267.40;65.30
72338;DHT22;60294;64.134;-21.862;2022-12-31T01:11:40;-3267.40;64.70
72338;DHT22;60294;64.134;-21.862;2022-12-31T01:14:15;-3267.50;64.80
72338;DHT22;60294;64.134;-21.862;2022-12-31T01:16:46;-3267.60;64.10
72338;DHT22;60294;64.134;-21.862;2022-12-31T01:19:16;-3267.70;64.00
72338;DHT22;60294;64.134;-21.862;2022-12-31T01:21:43;-3267.70;63.70
72338;DHT22;60294;64.134;-21.862;2022-12-31T01:24:10;-3267.80;63.30
72338;DHT22;60294;64.134;-21.862;2022-12-31T01:26:36;-3267.90;62.60
72338;DHT22;60294;64.134;-21.862;2022-12-31T01:29:03;-3267.90;62.80
72338;DHT22;60294;64.134;-21.862;2022-12-31T01:31:29;-3267.90;63.20
72338;DHT22;60294;64.134;-21.862;2022-12-31T01:33:56;-3267.90;63.20
72338;DHT22;60294;64.134;-21.862;2022-12-31T01:36:25;-3267.90;62.90
72338;DHT22;60294;64.134;-21.862;2022-12-31T01:38:55;-3268.00;62.80
72338;DHT22;60294;64.134;-21.862;2022-12-31T01:41:27;-3268.00;63.00
72338;DHT22;60294;64.134;-21.862;2022-12-31T01:49:15;-3268.10;63.10
72338;DHT22;60294;64.134;-21.862;2022-12-31T01:51:46;-3268.10;63.20
72338;DHT22;60294;64.134;-21.862;2022-12-31T01:54:15;-3268.10;63.30
72338;DHT22;60294;64.134;-21.862;2022-12-31T01:56:42;-3268.20;63.30
72338;DHT22;60294;64.134;-21.862;2022-12-31T01:59:10;-3268.20;63.50
72338;DHT22;60294;64.134;-21.862;2022-12-31T02:01:38;-3268.20;63.80
72338;DHT22;60294;64.134;-21.862;2022-12-31T02:04:08;-3268.20;64.30
72338;DHT22;60294;64.134;-21.862;2022-12-31T02:06:43;-3268.20;65.30
72338;DHT22;60294;64.134;-21.862;2022-12-31T02:09:10;-3268.20;67.40
72338;DHT22;60294;64.134;-21.862;2022-12-31T02:11:37;-3268.20;68.70
72338;DHT22;60294;64.134;-21.862;2022-12-31T02:14:20;-3268.10;68.60
72338;DHT22;60294;64.134;-21.862;2022-12-31T02:23:16;-3267.90;68.80
72338;DHT22;60294;64.134;-21.862;2022-12-31T02:31:24;-3268.10;71.30
72338;DHT22;60294;64.134;-21.862;2022-12-31T02:33:55;-3268.00;69.80
72338;DHT22;60294;64.134;-21.862;2022-12-31T02:36:33;-3268.10;70.10
72338;DHT22;60294;64.134;-21.862;2022-12-31T02:39:01;-3268.00;70.40
72338;DHT22;60294;64.134;-21.862;2022-12-31T02:41:27;-3268.00;71.70
72338;DHT22;60294;64.134;-21.862;2022-12-31T02:44:22;-3268.10;72.40
72338;DHT22;60294;64.134;-21.862;2022-12-31T02:49:57;-3268.10;73.70
72338;DHT22;60294;64.134;-21.862;2022-12-31T02:55:30;-3268.10;74.20
72338;DHT22;60294;64.134;-21.862;2022-12-31T03:01:20;-3268.10;74.90
72338;DHT22;60294;64.134;-21.862;2022-12-31T03:04:05;-3268.20;74.60
72338;DHT22;60294;64.134;-21.862;2022-12-31T03:06:51;-3268.20;73.60
72338;DHT22;60294;64.134;-21.862;2022-12-31T03:09:18;-3268.10;72.50
72338;DHT22;60294;64.134;-21.862;2022-12-31T03:11:43;-3268.10;71.90
72338;DHT22;60294;64.134;-21.862;2022-12-31T03:14:28;-3268.20;71.10
72338;DHT22;60294;64.134;-21.862;2022-12-31T03:16:54;-3268.20;70.60
72338;DHT22;60294;64.134;-21.862;2022-12-31T03:19:20;-3268.20;69.60
72338;DHT22;60294;64.134;-21.862;2022-12-31T03:22:04;-3268.30;68.90
72338;DHT22;60294;64.134;-21.862;2022-12-31T03:24:48;-3268.30;68.30
72338;DHT22;60294;64.134;-21.862;2022-12-31T03:27:32;-3268.30;68.20
72338;DHT22;60294;64.134;-21.862;2022-12-31T03:29:58;-3268.40;67.70
72338;DHT22;60294;64.134;-21.862;2022-12-31T03:32:24;-3268.40;67.40
72338;DHT22;60294;64.134;-21.862;2022-12-31T03:34:49;-3268.40;67.40
72338;DHT22;60294;64.134;-21.862;2022-12-31T03:37:15;-3268.40;67.50
72338;DHT22;60294;64.134;-21.862;2022-12-31T03:39:41;-3268.50;68.10
72338;DHT22;60294;64.134;-21.862;2022-12-31T03:42:07;-3268.50;68.90
72338;DHT22;60294;64.134;-21.862;2022-12-31T03:44:33;-3268.40;69.30
72338;DHT22;60294;64.134;-21.862;2022-12-31T03:46:58;-3268.50;69.80
72338;DHT22;60294;64.134;-21.862;2022-12-31T03:49:24;-3268.50;69.60
72338;DHT22;60294;64.134;-21.862;2022-12-31T03:51:50;-3268.50;69.30
72338;DHT22;60294;64.134;-21.862;2022-12-31T03:54:16;-3268.60;69.00
72338;DHT22;60294;64.134;-21.862;2022-12-31T03:56:42;-3268.50;68.70
72338;DHT22;60294;64.134;-21.862;2022-12-31T03:59:07;-3268.60;68.50
72338;DHT22;60294;64.134;-21.862;2022-12-31T04:01:33;-3268.60;68.60
72338;DHT22;60294;64.134;-21.862;2022-12-31T04:03:59;-3268.60;68.80
72338;DHT22;60294;64.134;-21.862;2022-12-31T04:06:25;-3268.60;69.10
72338;DHT22;60294;64.134;-21.862;2022-12-31T04:08:50;-3268.60;68.80
72338;DHT22;60294;64.134;-21.862;2022-12-31T04:11:16;-3268.60;69.10
72338;DHT22;60294;64.134;-21.862;2022-12-31T04:13:42;-3268.70;68.90
72338;DHT22;60294;64.134;-21.862;2022-12-31T04:16:08;-3268.70;68.30
72338;DHT22;60294;64.134;-21.862;2022-12-31T04:18:34;-3268.80;68.10
72338;DHT22;60294;64.134;-21.862;2022-12-31T04:21:04;-3268.80;68.20
72338;DHT22;60294;64.134;-21.862;2022-12-31T04:23:30;-3268.90;67.60
72338;DHT22;60294;64.134;-21.862;2022-12-31T04:25:56;-3268.90;67.70
72338;DHT22;60294;64.134;-21.862;2022-12-31T04:28:22;-3268.90;67.60
72338;DHT22;60294;64.134;-21.862;2022-12-31T04:30:47;-3268.90;67.00
72338;DHT22;60294;64.134;-21.862;2022-12-31T04:33:13;-3268.90;66.90
72338;DHT22;60294;64.134;-21.862;2022-12-31T04:35:39;-3268.90;66.90
72338;DHT22;60294;64.134;-21.862;2022-12-31T04:38:05;-3268.90;66.80
72338;DHT22;60294;64.134;-21.862;2022-12-31T04:40:31;-3268.90;66.80
72338;DHT22;60294;64.134;-21.862;2022-12-31T04:42:56;-3268.90;67.10
72338;DHT22;60294;64.134;-21.862;2022-12-31T04:45:22;-3268.90;67.30
72338;DHT22;60294;64.134;-21.862;2022-12-31T04:47:48;-3268.90;67.60
72338;DHT22;60294;64.134;-21.862;2022-12-31T04:50:14;-3268.90;67.80
72338;DHT22;60294;64.134;-21.862;2022-12-31T04:52:39;-3269.00;67.50
72338;DHT22;60294;64.134;-21.862;2022-12-31T04:55:05;-3269.00;67.90
72338;DHT22;60294;64.134;-21.862;2022-12-31T04:57:31;-3268.90;68.50
72338;DHT22;60294;64.134;-21.862;2022-12-31T04:59:57;-3268.90;69.00
72338;DHT22;60294;64.134;-21.862;2022-12-31T05:02:23;-3268.90;69.00
72338;DHT22;60294;64.134;-21.862;2022-12-31T05:04:49;-3268.90;69.10
72338;DHT22;60294;64.134;-21.862;2022-12-31T05:07:14;-3268.90;69.70
72338;DHT22;60294;64.134;-21.862;2022-12-31T05:09:40;-3268.90;70.10
72338;DHT22;60294;64.134;-21.862;2022-12-31T05:12:06;-3268.80;69.90
72338;DHT22;60294;64.134;-21.862;2022-12-31T05:14:32;-3268.90;69.80
72338;DHT22;60294;64.134;-21.862;2022-12-31T05:16:58;-3268.90;69.60
72338;DHT22;60294;64.134;-21.862;2022-12-31T05:19:29;-3269.00;69.10
72338;DHT22;60294;64.134;-21.862;2022-12-31T05:21:55;-3269.00;68.70
72338;DHT22;60294;64.134;-21.862;2022-12-31T05:24:39;-3269.00;68.40
72338;DHT22;60294;64.134;-21.862;2022-12-31T05:27:05;-3269.10;68.70
72338;DHT22;60294;64.134;-21.862;2022-12-31T05:29:31;-3269.10;68.70
72338;DHT22;60294;64.134;-21.862;2022-12-31T05:31:56;-3269.20;68.30
72338;DHT22;60294;64.134;-21.862;2022-12-31T05:34:22;-3269.30;68.10
72338;DHT22;60294;64.134;-21.862;2022-12-31T05:36:48;-3269.40;68.10
72338;DHT22;60294;64.134;-21.862;2022-12-31T05:39:14;-3269.30;68.40
72338;DHT22;60294;64.134;-21.862;2022-12-31T05:41:39;-3269.30;68.90
72338;DHT22;60294;64.134;-21.862;2022-12-31T05:44:05;-3269.20;69.30
72338;DHT22;60294;64.134;-21.862;2022-12-31T05:46:31;-3269.20;69.70
72338;DHT22;60294;64.134;-21.862;2022-12-31T05:48:57;-3269.20;69.80
72338;DHT22;60294;64.134;-21.862;2022-12-31T05:51:22;-3269.20;69.90
72338;DHT22;60294;64.134;-21.862;2022-12-31T05:53:48;-3269.30;69.80
72338;DHT22;60294;64.134;-21.862;2022-12-31T05:56:14;-3269.40;69.20
72338;DHT22;60294;64.134;-21.862;2022-12-31T05:58:40;-3269.40;69.30
72338;DHT22;60294;64.134;-21.862;2022-12-31T06:01:06;-3269.40;69.50
72338;DHT22;60294;64.134;-21.862;2022-12-31T06:03:32;-3269.40;69.90
72338;DHT22;60294;64.134;-21.862;2022-12-31T06:06:00;-3269.40;70.60
72338;DHT22;60294;64.134;-21.862;2022-12-31T06:08:26;-3269.50;70.80
72338;DHT22;60294;64.134;-21.862;2022-12-31T06:10:51;-3269.40;71.30
72338;DHT22;60294;64.134;-21.862;2022-12-31T06:13:17;-3269.40;72.00
72338;DHT22;60294;64.134;-21.862;2022-12-31T06:15:43;-3269.40;72.40
72338;DHT22;60294;64.134;-21.862;2022-12-31T06:18:09;-3269.30;73.00
72338;DHT22;60294;64.134;-21.862;2022-12-31T06:20:37;-3269.30;73.60
72338;DHT22;60294;64.134;-21.862;2022-12-31T06:23:03;-3269.40;74.10
72338;DHT22;60294;64.134;-21.862;2022-12-31T06:25:30;-3269.40;74.10
72338;DHT22;60294;64.134;-21.862;2022-12-31T06:27:55;-3269.40;74.20
72338;DHT22;60294;64.134;-21.862;2022-12-31T06:30:21;-3269.40;74.40
72338;DHT22;60294;64.134;-21.862;2022-12-31T06:32:47;-3269.50;74.40
72338;DHT22;60294;64.134;-21.862;2022-12-31T06:35:13;-3269.40;74.40
72338;DHT22;60294;64.134;-21.862;2022-12-31T06:37:39;-3269.40;74.50
72338;DHT22;60294;64.134;-21.862;2022-12-31T06:40:05;-3269.40;74.50
72338;DHT22;60294;64.134;-21.862;2022-12-31T06:42:31;-3269.50;74.60
72338;DHT22;60294;64.134;-21.862;2022-12-31T06:44:57;-3269.50;74.60
72338;DHT22;60294;64.134;-21.862;2022-12-31T06:47:23;-3269.50;74.70
72338;DHT22;60294;64.134;-21.862;2022-12-31T06:49:50;-3269.50;74.80
72338;DHT22;60294;64.134;-21.862;2022-12-31T06:52:16;-3269.50;75.00
72338;DHT22;60294;64.134;-21.862;2022-12-31T06:54:42;-3269.40;75.20
72338;DHT22;60294;64.134;-21.862;2022-12-31T06:57:08;-3269.50;75.40
72338;DHT22;60294;64.134;-21.862;2022-12-31T06:59:35;-3269.50;75.60
72338;DHT22;60294;64.134;-21.862;2022-12-31T07:02:10;-3269.50;75.90
72338;DHT22;60294;64.134;-21.862;2022-12-31T07:07:28;-3269.60;76.10
72338;DHT22;60294;64.134;-21.862;2022-12-31T07:15:57;-3269.70;76.40
72338;DHT22;60294;64.134;-21.862;2022-12-31T07:18:35;-3269.80;76.40
72338;DHT22;60294;64.134;-21.862;2022-12-31T07:21:12;-3269.80;76.40
72338;DHT22;60294;64.134;-21.862;2022-12-31T07:23:40;-3269.90;76.60
72338;DHT22;60294;64.134;-21.862;2022-12-31T07:40:50;-3270.00;77.00
72338;DHT22;60294;64.134;-21.862;2022-12-31T07:43:47;-3270.00;77.00
72338;DHT22;60294;64.134;-21.862;2022-12-31T07:49:10;-3270.10;77.00
72338;DHT22;60294;64.134;-21.862;2022-12-31T07:51:36;-3270.10;76.90
72338;DHT22;60294;64.134;-21.862;2022-12-31T07:54:02;-3270.10;77.10
72338;DHT22;60294;64.134;-21.862;2022-12-31T07:56:29;-3270.20;77.30
72338;DHT22;60294;64.134;-21.862;2022-12-31T07:59:13;-3270.20;77.20
72338;DHT22;60294;64.134;-21.862;2022-12-31T08:02:02;-3270.20;77.00
72338;DHT22;60294;64.134;-21.862;2022-12-31T08:05:03;-3270.30;77.10
72338;DHT22;60294;64.134;-21.862;2022-12-31T08:10:31;-3270.30;77.30
72338;DHT22;60294;64.134;-21.862;2022-12-31T08:13:06;-3270.40;77.30
72338;DHT22;60294;64.134;-21.862;2022-12-31T08:15:36;-3270.40;77.30
72338;DHT22;60294;64.134;-21.862;2022-12-31T08:18:03;-3270.50;77.40
72338;DHT22;60294;64.134;-21.862;2022-12-31T08:20:30;-3270.50;77.50
72338;DHT22;60294;64.134;-21.862;2022-12-31T08:23:23;-3270.60;77.60
72338;DHT22;60294;64.134;-21.862;2022-12-31T08:29:00;-3270.60;77.70
72338;DHT22;60294;64.134;-21.862;2022-12-31T08:37:01;-3270.80;77.90
72338;DHT22;60294;64.134;-21.862;2022-12-31T08:39:54;-3270.80;77.60
72338;DHT22;60294;64.134;-21.862;2022-12-31T08:42:36;-3270.90;77.90
72338;DHT22;60294;64.134;-21.862;2022-12-31T08:45:22;-3270.90;78.50
72338;DHT22;60294;64.134;-21.862;2022-12-31T08:50:21;-3270.90;78.80
72338;DHT22;60294;64.134;-21.862;2022-12-31T08:52:47;-3270.90;78.90
72338;DHT22;60294;64.134;-21.862;2022-12-31T08:55:17;-3270.90;78.90
72338;DHT22;60294;64.134;-21.862;2022-12-31T09:00:28;-3270.90;79.60
72338;DHT22;60294;64.134;-21.862;2022-12-31T09:08:45;-3270.80;80.60
72338;DHT22;60294;64.134;-21.862;2022-12-31T09:17:16;-3270.90;81.00
72338;DHT22;60294;64.134;-21.862;2022-12-31T09:19:49;-3270.90;80.90
72338;DHT22;60294;64.134;-21.862;2022-12-31T09:22:15;-3270.90;80.90
72338;DHT22;60294;64.134;-21.862;2022-12-31T09:24:41;-3270.90;80.90
72338;DHT22;60294;64.134;-21.862;2022-12-31T09:38:07;-3270.80;80.40
72338;DHT22;60294;64.134;-21.862;2022-12-31T09:41:09;-3270.70;80.30
72338;DHT22;60294;64.134;-21.862;2022-12-31T09:47:32;-3270.70;80.10
72338;DHT22;60294;64.134;-21.862;2022-12-31T09:58:56;-3270.70;80.20
72338;DHT22;60294;64.134;-21.862;2022-12-31T10:04:24;-3270.70;80.30
72338;DHT22;60294;64.134;-21.862;2022-12-31T10:10:23;-3270.80;80.30
72338;DHT22;60294;64.134;-21.862;2022-12-31T10:13:06;-3270.80;80.40
72338;DHT22;60294;64.134;-21.862;2022-12-31T10:15:45;-3270.90;80.50
72338;DHT22;60294;64.134;-21.862;2022-12-31T10:35:17;-3271.30;80.80
72338;DHT22;60294;64.134;-21.862;2022-12-31T10:38:10;-3271.30;80.60
72338;DHT22;60294;64.134;-21.862;2022-12-31T10:44:05;-3271.30;79.80
72338;DHT22;60294;64.134;-21.862;2022-12-31T10:49:21;-3271.30;79.90
72338;DHT22;60294;64.134;-21.862;2022-12-31T10:52:25;-3271.30;79.90
72338;DHT22;60294;64.134;-21.862;2022-12-31T11:17:58;-3271.50;79.90
72338;DHT22;60294;64.134;-21.862;2022-12-31T11:20:41;-3271.50;79.60
72338;DHT22;60294;64.134;-21.862;2022-12-31T11:29:03;-3271.70;80.20
72338;DHT22;60294;64.134;-21.862;2022-12-31T11:50:41;-3272.00;80.20
72338;DHT22;60294;64.134;-21.862;2022-12-31T11:53:35;-3272.10;80.20
72338;DHT22;60294;64.134;-21.862;2022-12-31T11:56:17;-3272.20;80.20
72338;DHT22;60294;64.134;-21.862;2022-12-31T11:58:54;-3272.20;79.70
72338;DHT22;60294;64.134;-21.862;2022-12-31T12:01:25;-3272.10;79.30
72338;DHT22;60294;64.134;-21.862;2022-12-31T12:03:51;-3272.00;78.80
72338;DHT22;60294;64.134;-21.862;2022-12-31T12:06:22;-3272.00;78.60
72338;DHT22;60294;64.134;-21.862;2022-12-31T12:08:49;-3272.00;78.90
72338;DHT22;60294;64.134;-21.862;2022-12-31T12:11:26;-3272.00;79.00
72338;DHT22;60294;64.134;-21.862;2022-12-31T12:13:53;-3272.00;79.30
72338;DHT22;60294;64.134;-21.862;2022-12-31T12:16:20;-3272.00;79.60
72338;DHT22;60294;64.134;-21.862;2022-12-31T12:18:49;-3272.00;79.30
72338;DHT22;60294;64.134;-21.862;2022-12-31T12:21:23;-3272.00;79.30
72338;DHT22;60294;64.134;-21.862;2022-12-31T12:24:23;-3272.00;79.40
72338;DHT22;60294;64.134;-21.862;2022-12-31T12:26:49;-3272.00;79.60
72338;DHT22;60294;64.134;-21.862;2022-12-31T12:29:17;-3272.10;79.90
72338;DHT22;60294;64.134;-21.862;2022-12-31T12:32:05;-3272.20;80.20
72338;DHT22;60294;64.134;-21.862;2022-12-31T12:34:36;-3272.20;80.40
72338;DHT22;60294;64.134;-21.862;2022-12-31T12:37:03;-3272.30;80.60
72338;DHT22;60294;64.134;-21.862;2022-12-31T12:39:33;-3272.30;80.70
72338;DHT22;60294;64.134;-21.862;2022-12-31T12:44:27;-3272.50;81.10
72338;DHT22;60294;64.134;-21.862;2022-12-31T12:46:54;-3272.50;81.10
72338;DHT22;60294;64.134;-21.862;2022-12-31T12:49:24;-3272.50;81.30
72338;DHT22;60294;64.134;-21.862;2022-12-31T12:52:01;-3272.60;81.50
72338;DHT22;60294;64.134;-21.862;2022-12-31T13:00:43;-3272.90;81.90
72338;DHT22;60294;64.134;-21.862;2022-12-31T13:14:20;-3272.90;81.90
72338;DHT22;60294;64.134;-21.862;2022-12-31T13:22:36;-3273.00;82.50
72338;DHT22;60294;64.134;-21.862;2022-12-31T13:27:45;-3273.00;83.10
72338;DHT22;60294;64.134;-21.862;2022-12-31T13:35:49;-3273.10;83.50
72338;DHT22;60294;64.134;-21.862;2022-12-31T13:44:08;-3273.10;84.10
72338;DHT22;60294;64.134;-21.862;2022-12-31T13:46:50;-3273.00;84.00
72338;DHT22;60294;64.134;-21.862;2022-12-31T14:00:24;-3273.00;84.60
72338;DHT22;60294;64.134;-21.862;2022-12-31T14:06:00;-3273.00;85.00
72338;DHT22;60294;64.134;-21.862;2022-12-31T14:08:28;-3273.00;85.00
72338;DHT22;60294;64.134;-21.862;2022-12-31T14:11:27;-3272.90;84.80
72338;DHT22;60294;64.134;-21.862;2022-12-31T14:24:59;-3272.80;85.60
72338;DHT22;60294;64.134;-21.862;2022-12-31T14:27:33;-3272.80;85.80
72338;DHT22;60294;64.134;-21.862;2022-12-31T14:41:04;-3272.90;86.60
72338;DHT22;60294;64.134;-21.862;2022-12-31T14:49:27;-3273.00;86.80
72338;DHT22;60294;64.134;-21.862;2022-12-31T14:52:28;-3273.00;86.80
72338;DHT22;60294;64.134;-21.862;2022-12-31T14:57:27;-3273.00;86.60
72338;DHT22;60294;64.134;-21.862;2022-12-31T15:00:00;-3272.90;86.60
72338;DHT22;60294;64.134;-21.862;2022-12-31T15:02:28;-3272.90;86.40
72338;DHT22;60294;64.134;-21.862;2022-12-31T15:05:17;-3272.80;86.30
72338;DHT22;60294;64.134;-21.862;2022-12-31T15:16:06;-3272.60;86.20
72338;DHT22;60294;64.134;-21.862;2022-12-31T15:24:23;-3272.60;86.60
72338;DHT22;60294;64.134;-21.862;2022-12-31T15:26:53;-3272.60;86.60
72338;DHT22;60294;64.134;-21.862;2022-12-31T15:32:02;-3272.70;86.90
72338;DHT22;60294;64.134;-21.862;2022-12-31T15:34:35;-3272.70;87.10
72338;DHT22;60294;64.134;-21.862;2022-12-31T15:37:05;-3272.80;87.10
72338;DHT22;60294;64.134;-21.862;2022-12-31T15:39:49;-3272.80;87.10
72338;DHT22;60294;64.134;-21.862;2022-12-31T15:42:32;-3272.80;87.20
72338;DHT22;60294;64.134;-21.862;2022-12-31T15:45:06;-3272.90;87.30
72338;DHT22;60294;64.134;-21.862;2022-12-31T15:47:45;-3272.90;87.30
72338;DHT22;60294;64.134;-21.862;2022-12-31T15:50:23;-3272.90;87.20
72338;DHT22;60294;64.134;-21.862;2022-12-31T15:53:01;-3273.00;87.30
72338;DHT22;60294;64.134;-21.862;2022-12-31T15:55:41;-3273.00;87.30
72338;DHT22;60294;64.134;-21.862;2022-12-31T15:58:18;-3273.00;87.40
72338;DHT22;60294;64.134;-21.862;2022-12-31T16:01:23;-3273.00;87.40
72338;DHT22;60294;64.134;-21.862;2022-12-31T16:03:56;-3273.00;87.40
72338;DHT22;60294;64.134;-21.862;2022-12-31T16:06:26;-3273.10;87.70
72338;DHT22;60294;64.134;-21.862;2022-12-31T16:08:53;-3273.10;87.70
72338;DHT22;60294;64.134;-21.862;2022-12-31T16:11:21;-3273.10;87.70
72338;DHT22;60294;64.134;-21.862;2022-12-31T16:13:51;-3273.20;87.70
72338;DHT22;60294;64.134;-21.862;2022-12-31T16:18:46;-3273.20;87.20
72338;DHT22;60294;64.134;-21.862;2022-12-31T16:21:35;-3273.20;87.30
72338;DHT22;60294;64.134;-21.862;2022-12-31T16:24:30;-3273.20;87.30
72338;DHT22;60294;64.134;-21.862;2022-12-31T16:27:00;-3273.20;87.20
72338;DHT22;60294;64.134;-21.862;2022-12-31T16:29:27;-3273.20;87.10
72338;DHT22;60294;64.134;-21.862;2022-12-31T16:31:53;-3273.30;87.10
72338;DHT22;60294;64.134;-21.862;2022-12-31T16:34:21;-3273.20;87.10
72338;DHT22;60294;64.134;-21.862;2022-12-31T16:37:02;-3273.20;87.00
72338;DHT22;60294;64.134;-21.862;2022-12-31T16:39:35;-3273.20;87.00
72338;DHT22;60294;64.134;-21.862;2022-12-31T16:42:13;-3273.20;87.10
72338;DHT22;60294;64.134;-21.862;2022-12-31T16:44:41;-3273.30;87.00
72338;DHT22;60294;64.134;-21.862;2022-12-31T16:47:08;-3273.20;87.00
72338;DHT22;60294;64.134;-21.862;2022-12-31T16:49:38;-3273.30;86.90
72338;DHT22;60294;64.134;-21.862;2022-12-31T16:52:26;-3273.20;86.80
72338;DHT22;60294;64.134;-21.862;2022-12-31T16:54:53;-3273.20;86.80
72338;DHT22;60294;64.134;-21.862;2022-12-31T16:57:22;-3273.30;86.80
72338;DHT22;60294;64.134;-21.862;2022-12-31T16:59:56;-3273.30;86.70
72338;DHT22;60294;64.134;-21.862;2022-12-31T17:02:28;-3273.30;86.60
72338;DHT22;60294;64.134;-21.862;2022-12-31T17:04:54;-3273.20;86.50
72338;DHT22;60294;64.134;-21.862;2022-12-31T17:12:52;-3273.20;86.30
72338;DHT22;60294;64.134;-21.862;2022-12-31T17:15:37;-3273.30;86.30
72338;DHT22;60294;64.134;-21.862;2022-12-31T17:18:05;-3273.30;86.40
72338;DHT22;60294;64.134;-21.862;2022-12-31T17:20:32;-3273.30;86.30
72338;DHT22;60294;64.134;-21.862;2022-12-31T17:23:05;-3273.30;86.30
72338;DHT22;60294;64.134;-21.862;2022-12-31T17:25:33;-3273.40;86.30
72338;DHT22;60294;64.134;-21.862;2022-12-31T17:28:21;-3273.40;86.20
72338;DHT22;60294;64.134;-21.862;2022-12-31T17:30:48;-3273.40;86.20
72338;DHT22;60294;64.134;-21.862;2022-12-31T17:35:46;-3273.30;86.10
72338;DHT22;60294;64.134;-21.862;2022-12-31T17:41:13;-3273.30;86.20
72338;DHT22;60294;64.134;-21.862;2022-12-31T17:43:40;-3273.30;86.20
72338;DHT22;60294;64.134;-21.862;2022-12-31T17:46:13;-3273.40;86.20
72338;DHT22;60294;64.134;-21.862;2022-12-31T17:48:40;-3273.40;86.20
72338;DHT22;60294;64.134;-21.862;2022-12-31T17:51:06;-3273.40;86.20
72338;DHT22;60294;64.134;-21.862;2022-12-31T17:53:32;-3273.40;86.30
72338;DHT22;60294;64.134;-21.862;2022-12-31T17:56:06;-3273.40;86.20
72338;DHT22;60294;64.134;-21.862;2022-12-31T17:58:51;-3273.40;86.20
72338;DHT22;60294;64.134;-21.862;2022-12-31T18:01:20;-3273.40;86.10
72338;DHT22;60294;64.134;-21.862;2022-12-31T18:03:46;-3273.40;86.20
72338;DHT22;60294;64.134;-21.862;2022-12-31T18:06:13;-3273.40;86.10
72338;DHT22;60294;64.134;-21.862;2022-12-31T18:08:39;-3273.40;86.10
72338;DHT22;60294;64.134;-21.862;2022-12-31T18:11:08;-3273.40;86.20
72338;DHT22;60294;64.134;-21.862;2022-12-31T18:13:36;-3273.40;86.20
72338;DHT22;60294;64.134;-21.862;2022-12-31T18:16:01;-3273.40;86.20
72338;DHT22;60294;64.134;-21.862;2022-12-31T18:18:29;-3273.40;86.30
72338;DHT22;60294;64.134;-21.862;2022-12-31T18:21:04;-3273.50;86.30
72338;DHT22;60294;64.134;-21.862;2022-12-31T18:23:36;-3273.50;86.30
72338;DHT22;60294;64.134;-21.862;2022-12-31T18:26:03;-3273.50;86.20
72338;DHT22;60294;64.134;-21.862;2022-12-31T18:28:29;-3273.50;86.20
72338;DHT22;60294;64.134;-21.862;2022-12-31T18:30:55;-3273.50;86.30
72338;DHT22;60294;64.134;-21.862;2022-12-31T18:33:21;-3273.50;86.30
72338;DHT22;60294;64.134;-21.862;2022-12-31T18:35:48;-3273.50;86.30
72338;DHT22;60294;64.134;-21.862;2022-12-31T18:38:17;-3273.50;86.20
72338;DHT22;60294;64.134;-21.862;2022-12-31T18:40:54;-3273.50;86.20
72338;DHT22;60294;64.134;-21.862;2022-12-31T18:43:22;-3273.50;86.20
72338;DHT22;60294;64.134;-21.862;2022-12-31T18:45:49;-3273.50;86.30
72338;DHT22;60294;64.134;-21.862;2022-12-31T18:48:16;-3273.60;86.40
72338;DHT22;60294;64.134;-21.862;2022-12-31T18:50:42;-3273.60;86.50
72338;DHT22;60294;64.134;-21.862;2022-12-31T18:53:20;-3273.70;86.60
72338;DHT22;60294;64.134;-21.862;2022-12-31T18:55:50;-3273.70;86.50
72338;DHT22;60294;64.134;-21.862;2022-12-31T18:58:16;-3273.70;86.50
72338;DHT22;60294;64.134;-21.862;2022-12-31T19:00:43;-3273.80;86.50
72338;DHT22;60294;64.134;-21.862;2022-12-31T19:03:20;-3273.80;86.60
72338;DHT22;60294;64.134;-21.862;2022-12-31T19:05:47;-3273.90;86.60
72338;DHT22;60294;64.134;-21.862;2022-12-31T19:08:17;-3274.00;86.40
72338;DHT22;60294;64.134;-21.862;2022-12-31T19:10:44;-3274.10;86.20
72338;DHT22;60294;64.134;-21.862;2022-12-31T19:13:14;-3274.10;85.70
72338;DHT22;60294;64.134;-21.862;2022-12-31T19:15:52;-3274.20;85.50
72338;DHT22;60294;64.134;-21.862;2022-12-31T19:18:20;-3274.30;85.10
72338;DHT22;60294;64.134;-21.862;2022-12-31T19:20:46;-3274.40;84.50
72338;DHT22;60294;64.134;-21.862;2022-12-31T19:23:17;-3274.40;83.30
72338;DHT22;60294;64.134;-21.862;2022-12-31T19:25:44;-3274.50;82.20
72338;DHT22;60294;64.134;-21.862;2022-12-31T19:28:20;-3274.50;81.40
72338;DHT22;60294;64.134;-21.862;2022-12-31T19:30:46;-3274.50;79.20
72338;DHT22;60294;64.134;-21.862;2022-12-31T19:33:12;-3274.60;77.10
72338;DHT22;60294;64.134;-21.862;2022-12-31T19:35:38;-3274.70;75.60
72338;DHT22;60294;64.134;-21.862;2022-12-31T19:40:43;-3274.90;71.90